Time;durP1;ratioP1;P1;durP2;ratioP2;P2;SDS_P1;SDS_P2;PMS_P1;PMS_P2;Temp;Humidity;BMP_temperature;BMP_pressure;BME280_temperature;BME280_humidity;BME280_pressure;Samples;Min_cycle;Max_cycle;Signal;HPM_P1;HPM_P2
2022/03/05 00:00:50;;;;;;;5.30;3.80;;;-0.60;99.90;;;;;;4973728;28;20507;-75
2022/03/05 00:03:36;;;;;;;6.40;3.72;;;-0.60;99.90;;;;;;4931185;28;20050;-75
2022/03/05 00:06:14;;;;;;;5.25;3.53;;;-0.60;99.90;;;;;;4949189;28;20053;-75
2022/03/05 00:08:41;;;;;;;7.95;4.60;;;-0.60;99.90;;;;;;4949562;28;20049;-75
2022/03/05 00:11:07;;;;;;;6.72;3.15;;;-0.60;99.90;;;;;;4929958;28;20041;-75
2022/03/05 00:13:33;;;;;;;6.70;3.33;;;-0.50;99.90;;;;;;4948147;28;20045;-75
2022/03/05 00:15:59;;;;;;;3.60;2.88;;;-0.50;99.90;;;;;;4955093;28;20432;-75
2022/03/05 00:18:25;;;;;;;5.93;4.05;;;-0.50;99.90;;;;;;4994345;28;20057;-75
2022/03/05 00:20:53;;;;;;;7.32;4.70;;;-0.60;99.90;;;;;;4984685;28;20044;-75
2022/03/05 00:23:18;;;;;;;4.60;3.50;;;-0.60;99.90;;;;;;5010889;28;20072;-75
2022/03/05 00:25:44;;;;;;;5.22;4.05;;;-0.60;99.90;;;;;;5015489;28;20049;-75
2022/03/05 00:28:10;;;;;;;10.52;4.05;;;-0.60;99.90;;;;;;5013410;28;20563;-75
2022/03/05 00:30:39;;;;;;;7.65;4.03;;;-0.60;99.90;;;;;;4986716;28;20067;-76
2022/03/05 00:33:19;;;;;;;6.72;3.53;;;-0.60;99.90;;;;;;5008666;28;20045;-76
2022/03/05 00:35:47;;;;;;;4.75;3.78;;;-0.60;99.90;;;;;;4997336;28;20060;-77
2022/03/05 00:38:12;;;;;;;4.78;3.33;;;-0.60;99.90;;;;;;5000215;28;20087;-77
2022/03/05 00:40:39;;;;;;;8.43;4.53;;;-0.70;99.90;;;;;;4992618;28;20048;-76
2022/03/05 00:43:05;;;;;;;9.88;4.15;;;-0.60;99.90;;;;;;4993612;28;20417;-77
2022/03/05 00:45:30;;;;;;;4.90;3.95;;;-0.60;99.90;;;;;;5002627;28;20037;-77
2022/03/05 00:48:21;;;;;;;17.08;4.60;;;-0.60;99.90;;;;;;4991258;28;20045;-75
2022/03/05 00:50:48;;;;;;;9.48;4.50;;;-0.60;99.90;;;;;;4945995;28;20042;-75
2022/03/05 00:53:17;;;;;;;6.72;3.70;;;-0.70;99.90;;;;;;4964668;28;20058;-76
2022/03/05 00:55:43;;;;;;;6.78;4.43;;;-0.60;99.90;;;;;;4935636;28;20058;-76
2022/03/05 00:58:09;;;;;;;5.05;3.25;;;-0.60;99.90;;;;;;4949287;28;20426;-76
2022/03/05 01:00:35;;;;;;;9.25;3.95;;;-0.60;99.90;;;;;;4957731;28;20312;-74
2022/03/05 01:03:01;;;;;;;3.47;2.88;;;-0.60;99.90;;;;;;4956386;28;20050;-75
2022/03/05 01:05:26;;;;;;;10.95;3.58;;;-0.60;99.90;;;;;;4955830;28;20522;-75
2022/03/05 01:07:52;;;;;;;6.55;3.25;;;-0.60;99.90;;;;;;4956735;28;20058;-75
2022/03/05 01:10:17;;;;;;;4.05;2.88;;;-0.60;99.90;;;;;;4966874;28;20053;-75
2022/03/05 01:12:43;;;;;;;5.20;2.58;;;-0.60;99.90;;;;;;4968238;28;20046;-75
2022/03/05 01:15:09;;;;;;;2.53;2.08;;;-0.60;99.90;;;;;;4965163;28;20125;-75
2022/03/05 01:17:35;;;;;;;1.38;1.38;;;-0.70;99.90;;;;;;4967267;28;20057;-75
2022/03/05 01:20:00;;;;;;;4.05;3.08;;;-0.70;99.90;;;;;;4967599;28;20050;-76
2022/03/05 01:22:26;;;;;;;4.93;2.80;;;-0.70;99.90;;;;;;4965764;28;20546;-75
2022/03/05 01:24:52;;;;;;;4.05;2.30;;;-0.70;99.90;;;;;;4966610;28;20053;-75
2022/03/05 01:27:18;;;;;;;1.60;1.50;;;-0.80;99.90;;;;;;4968522;28;20524;-75
2022/03/05 01:29:44;;;;;;;13.82;4.20;;;-0.80;99.90;;;;;;5001681;28;20037;-75
2022/03/05 01:32:09;;;;;;;11.45;4.45;;;-0.80;99.90;;;;;;5010903;28;20044;-76
2022/03/05 01:34:35;;;;;;;4.20;3.58;;;-0.90;99.90;;;;;;5009534;28;20045;-75
2022/03/05 01:37:01;;;;;;;6.82;4.18;;;-0.90;99.90;;;;;;5007350;28;20098;-75
2022/03/05 01:39:26;;;;;;;4.15;3.22;;;-0.90;99.90;;;;;;4996530;28;20045;-75
2022/03/05 01:41:55;;;;;;;4.03;2.85;;;-0.90;99.90;;;;;;4985884;28;22088;-75
2022/03/05 01:44:21;;;;;;;6.00;3.22;;;-1.00;99.90;;;;;;5004564;28;20121;-75
2022/03/05 01:46:47;;;;;;;3.35;2.33;;;-1.00;99.90;;;;;;4994433;28;20061;-75
2022/03/05 01:49:13;;;;;;;4.80;3.65;;;-1.00;99.90;;;;;;4985324;28;20175;-75
2022/03/05 01:51:40;;;;;;;4.43;3.53;;;-1.00;99.90;;;;;;4974567;28;20052;-75
2022/03/05 01:54:06;;;;;;;3.83;3.42;;;-1.00;99.90;;;;;;4982082;28;20045;-76
2022/03/05 01:56:33;;;;;;;4.85;3.03;;;-1.00;99.90;;;;;;5024069;28;20053;-76
2022/03/05 01:58:59;;;;;;;3.60;2.80;;;-1.00;99.90;;;;;;5013207;28;20040;-76
2022/03/05 02:01:27;;;;;;;3.97;2.45;;;-1.00;99.90;;;;;;5005377;28;20116;-76
2022/03/05 02:03:54;;;;;;;3.63;2.95;;;-1.00;99.90;;;;;;5002472;28;20351;-76
2022/03/05 02:06:20;;;;;;;5.03;3.00;;;-1.00;99.90;;;;;;5009006;28;20046;-76
2022/03/05 02:08:46;;;;;;;5.47;4.35;;;-1.00;99.90;;;;;;5008554;28;20041;-76
2022/03/05 02:11:12;;;;;;;7.00;4.10;;;-0.90;99.90;;;;;;5011383;28;20052;-76
2022/03/05 02:13:37;;;;;;;17.85;3.97;;;-0.90;99.90;;;;;;4991095;28;20050;-76
2022/03/05 02:16:03;;;;;;;10.40;5.47;;;-0.90;99.90;;;;;;4992715;28;20517;-76
2022/03/05 02:18:29;;;;;;;6.25;3.95;;;-0.80;99.90;;;;;;5011313;28;20041;-76
2022/03/05 02:20:55;;;;;;;3.50;3.17;;;-0.80;99.90;;;;;;4990755;28;20046;-76
2022/03/05 02:23:21;;;;;;;7.28;4.15;;;-0.80;99.90;;;;;;5008445;28;20084;-76
2022/03/05 02:25:51;;;;;;;6.32;4.10;;;-0.80;99.90;;;;;;4996096;28;20490;-76
2022/03/05 02:28:18;;;;;;;5.80;3.08;;;-0.80;99.90;;;;;;4993194;28;20049;-76
2022/03/05 02:30:43;;;;;;;8.32;4.32;;;-0.80;99.90;;;;;;4993626;28;20067;-76
2022/03/05 02:33:09;;;;;;;5.55;4.03;;;-0.80;99.90;;;;;;4990671;28;20220;-76
2022/03/05 02:35:35;;;;;;;1.67;1.58;;;-0.90;99.90;;;;;;4993847;28;20132;-76
2022/03/05 02:38:00;;;;;;;10.23;4.07;;;-0.90;99.90;;;;;;5006366;28;20064;-76
2022/03/05 02:40:26;;;;;;;2.95;2.75;;;-1.00;99.90;;;;;;5034644;28;20041;-75
2022/03/05 02:42:52;;;;;;;2.67;2.35;;;-1.00;99.90;;;;;;5022818;28;20073;-76
2022/03/05 02:45:17;;;;;;;6.30;3.97;;;-1.00;99.90;;;;;;5002316;28;20469;-76
2022/03/05 02:47:43;;;;;;;6.95;3.70;;;-1.00;99.90;;;;;;5040662;28;20040;-76
2022/03/05 02:50:09;;;;;;;4.10;3.08;;;-1.00;99.90;;;;;;5045155;28;20042;-76
2022/03/05 02:52:39;;;;;;;5.10;3.17;;;-1.00;99.90;;;;;;5027409;28;20080;-76
2022/03/05 02:55:05;;;;;;;3.47;2.97;;;-1.00;99.90;;;;;;5023214;28;20083;-76
2022/03/05 02:57:31;;;;;;;1.60;1.50;;;-1.00;99.90;;;;;;5003145;28;20087;-76
2022/03/05 02:59:57;;;;;;;8.20;1.25;;;-1.00;99.90;;;;;;5006975;28;20442;-76
2022/03/05 03:02:22;;;;;;;6.80;2.63;;;-1.00;99.90;;;;;;5016045;28;20465;-76
2022/03/05 03:04:48;;;;;;;0.50;0.50;;;-1.10;99.90;;;;;;4994706;28;20037;-76
2022/03/05 03:07:14;;;;;;;4.93;3.03;;;-1.10;99.90;;;;;;5027716;28;20036;-76
2022/03/05 03:09:39;;;;;;;0.77;0.77;;;-1.20;99.90;;;;;;5036705;28;20543;-76
2022/03/05 03:12:05;;;;;;;7.88;3.45;;;-1.20;99.90;;;;;;5043661;28;20124;-76
2022/03/05 03:14:31;;;;;;;1.65;1.58;;;-1.30;99.90;;;;;;5026307;28;20497;-77
2022/03/05 03:16:56;;;;;;;2.55;2.33;;;-1.30;99.90;;;;;;5026179;28;20099;-76
2022/03/05 03:19:22;;;;;;;4.20;2.90;;;-1.40;99.90;;;;;;5027368;28;20042;-75
2022/03/05 03:21:48;;;;;;;1.17;1.17;;;-1.40;99.90;;;;;;4986839;28;20065;-77
2022/03/05 03:24:13;;;;;;;4.68;3.00;;;-1.50;99.90;;;;;;5043373;28;20124;-75
2022/03/05 03:26:39;;;;;;;1.73;1.60;;;-1.50;99.90;;;;;;5028850;28;20096;-75
2022/03/05 03:29:04;;;;;;;5.72;3.53;;;-1.50;99.90;;;;;;5025846;28;20041;-75
2022/03/05 03:31:30;;;;;;;1.90;1.52;;;-1.60;99.90;;;;;;5010498;28;20037;-75
2022/03/05 03:33:55;;;;;;;1.98;1.67;;;-1.70;99.90;;;;;;5031866;28;20044;-75
2022/03/05 03:36:21;;;;;;;7.78;4.68;;;-1.70;99.90;;;;;;5036885;28;20104;-75
2022/03/05 03:38:47;;;;;;;3.47;2.15;;;-1.70;99.90;;;;;;4990703;28;20057;-75
2022/03/05 03:41:12;;;;;;;7.13;2.38;;;-1.80;99.90;;;;;;5013487;28;20088;-75
2022/03/05 03:43:38;;;;;;;0.73;0.73;;;-1.80;99.90;;;;;;5009750;28;20088;-75
2022/03/05 03:46:03;;;;;;;0.65;0.65;;;-1.80;99.90;;;;;;5043447;28;20843;-75
2022/03/05 03:48:29;;;;;;;1.83;1.73;;;-1.90;99.90;;;;;;5024450;28;20083;-75
2022/03/05 03:50:55;;;;;;;1.80;1.67;;;-1.90;99.90;;;;;;5028437;28;20034;-75
2022/03/05 03:53:20;;;;;;;3.22;1.70;;;-2.00;99.90;;;;;;5015295;28;20036;-75
2022/03/05 03:55:46;;;;;;;2.95;2.65;;;-2.00;99.90;;;;;;5018736;28;20494;-75
2022/03/05 03:58:11;;;;;;;5.68;3.05;;;-2.00;99.90;;;;;;5025702;28;20073;-75
2022/03/05 04:00:37;;;;;;;3.42;2.75;;;-2.00;99.90;;;;;;4998018;28;20509;-75
2022/03/05 04:03:03;;;;;;;5.93;2.33;;;-1.90;99.90;;;;;;4999502;28;20398;-75
2022/03/05 04:05:28;;;;;;;0.50;0.50;;;-2.00;99.90;;;;;;5023679;28;20037;-75
2022/03/05 04:10:38;;;;;;;1.65;1.58;;;-2.00;99.90;;;;;;5007578;28;20455;-75
2022/03/05 04:13:03;;;;;;;3.50;3.05;;;-2.00;99.90;;;;;;5036566;28;20151;-76
2022/03/05 04:15:29;;;;;;;1.45;1.35;;;-2.00;99.90;;;;;;5016293;28;20118;-77
2022/03/05 04:17:55;;;;;;;2.55;1.67;;;-2.00;99.90;;;;;;5018317;28;20045;-77
2022/03/05 04:20:20;;;;;;;0.80;0.80;;;-1.90;99.90;;;;;;5041017;28;20045;-76
2022/03/05 04:22:46;;;;;;;4.97;2.03;;;-1.90;99.90;;;;;;5040857;28;20053;-75
2022/03/05 04:25:12;;;;;;;1.90;0.90;;;-2.00;99.90;;;;;;5040128;28;20053;-75
2022/03/05 04:27:38;;;;;;;3.42;2.05;;;-1.90;99.90;;;;;;5024656;28;20052;-75
2022/03/05 04:30:05;;;;;;;3.67;2.53;;;-1.90;99.90;;;;;;5014882;28;20436;-75
2022/03/05 04:32:31;;;;;;;3.00;2.80;;;-1.90;99.90;;;;;;5018623;28;20041;-75
2022/03/05 04:34:56;;;;;;;7.32;4.07;;;-1.90;99.90;;;;;;5027017;28;20056;-75
2022/03/05 04:37:22;;;;;;;3.47;2.85;;;-1.90;99.90;;;;;;4991764;28;20057;-75
2022/03/05 04:39:47;;;;;;;6.88;4.78;;;-1.90;99.90;;;;;;5008592;28;20103;-75
2022/03/05 04:42:13;;;;;;;5.57;3.45;;;-1.80;99.90;;;;;;5020746;28;20156;-75
2022/03/05 04:44:39;;;;;;;5.95;4.07;;;-1.80;99.90;;;;;;5007967;28;20038;-75
2022/03/05 04:47:04;;;;;;;6.57;4.28;;;-1.70;99.90;;;;;;5008253;28;20041;-75
2022/03/05 04:49:30;;;;;;;8.18;3.70;;;-1.60;99.90;;;;;;5019892;28;20049;-75
2022/03/05 04:51:56;;;;;;;7.43;4.35;;;-1.60;99.90;;;;;;5003363;28;20085;-75
2022/03/05 04:54:21;;;;;;;7.25;3.50;;;-1.60;99.90;;;;;;5024879;28;20209;-75
2022/03/05 04:56:47;;;;;;;4.30;3.45;;;-1.60;99.90;;;;;;4994658;28;20041;-75
2022/03/05 04:59:12;;;;;;;4.35;3.20;;;-1.60;99.90;;;;;;5021933;28;20490;-75
2022/03/05 05:01:38;;;;;;;3.17;2.88;;;-1.60;99.90;;;;;;5001727;28;20073;-75
2022/03/05 05:04:04;;;;;;;4.15;3.40;;;-1.60;99.90;;;;;;5003799;28;20045;-75
2022/03/05 05:06:30;;;;;;;4.80;3.75;;;-1.60;99.90;;;;;;5004802;28;20045;-75
2022/03/05 05:08:56;;;;;;;2.75;1.77;;;-1.60;99.90;;;;;;5024422;28;20072;-75
2022/03/05 05:11:21;;;;;;;3.97;2.10;;;-1.60;99.90;;;;;;5005205;28;20147;-75
2022/03/05 05:13:47;;;;;;;4.70;3.05;;;-1.70;99.90;;;;;;4989074;28;20036;-75
2022/03/05 05:16:13;;;;;;;4.78;2.72;;;-1.70;99.90;;;;;;5008121;28;20056;-75
2022/03/05 05:19:24;;;;;;;2.85;2.35;;;-1.70;99.90;;;;;;5025221;28;20386;-75
2022/03/05 05:21:24;;;;;;;6.00;3.28;;;-1.70;99.90;;;;;;5018293;28;20052;-75
2022/03/05 05:23:50;;;;;;;7.10;4.45;;;-1.70;99.90;;;;;;5023908;28;20041;-75
2022/03/05 05:26:16;;;;;;;2.72;2.40;;;-1.60;99.90;;;;;;5007418;28;20060;-75
2022/03/05 05:28:41;;;;;;;5.00;2.33;;;-1.60;99.90;;;;;;4990120;28;20068;-75
2022/03/05 05:31:07;;;;;;;4.25;3.20;;;-1.70;99.90;;;;;;5007858;28;20049;-75
2022/03/05 05:33:32;;;;;;;4.22;3.00;;;-1.70;99.90;;;;;;5003538;28;20045;-75
2022/03/05 05:35:58;;;;;;;1.75;1.65;;;-1.70;99.90;;;;;;4998251;28;20061;-75
2022/03/05 05:38:33;;;;;;;2.65;2.38;;;-1.70;99.90;;;;;;5002310;28;20296;-75
2022/03/05 05:40:59;;;;;;;1.65;1.55;;;-1.80;99.90;;;;;;4980885;28;20045;-74
2022/03/05 05:43:24;;;;;;;0.50;0.50;;;-1.80;99.90;;;;;;4976603;28;20072;-74
2022/03/05 05:45:53;;;;;;;3.22;2.35;;;-1.90;99.90;;;;;;4987147;28;20041;-74
2022/03/05 05:48:18;;;;;;;0.50;0.50;;;-1.90;99.90;;;;;;4970751;28;20509;-75
2022/03/05 05:50:44;;;;;;;1.00;1.00;;;-1.90;99.90;;;;;;4963831;28;20045;-75
2022/03/05 05:53:11;;;;;;;7.22;5.03;;;-1.90;99.90;;;;;;4991153;28;20045;-75
2022/03/05 05:55:39;;;;;;;7.07;4.00;;;-2.00;99.90;;;;;;4975624;28;20655;-74
2022/03/05 05:58:05;;;;;;;9.13;4.57;;;-1.90;99.90;;;;;;4989791;28;20041;-74
2022/03/05 06:00:31;;;;;;;8.18;5.63;;;-1.80;99.90;;;;;;4994285;28;20581;-74
2022/03/05 06:02:57;;;;;;;4.05;3.25;;;-1.70;99.90;;;;;;4958304;28;21360;-74
2022/03/05 06:05:22;;;;;;;7.03;4.05;;;-1.70;99.90;;;;;;4986031;28;20119;-74
2022/03/05 06:07:48;;;;;;;7.70;4.60;;;-1.60;99.90;;;;;;4983934;28;20046;-75
2022/03/05 06:10:14;;;;;;;4.60;3.30;;;-1.60;99.90;;;;;;4973990;28;20477;-74
2022/03/05 06:12:40;;;;;;;7.63;4.45;;;-1.60;99.90;;;;;;4975816;28;20052;-74
2022/03/05 06:15:08;;;;;;;11.13;4.90;;;-1.60;99.90;;;;;;5012437;28;20042;-74
2022/03/05 06:17:34;;;;;;;7.95;4.60;;;-1.50;99.90;;;;;;4997154;28;20034;-74
2022/03/05 06:20:00;;;;;;;18.90;6.03;;;-1.50;99.90;;;;;;5008502;28;20056;-74
2022/03/05 06:22:26;;;;;;;6.45;3.78;;;-1.50;99.90;;;;;;4995698;28;20145;-74
2022/03/05 06:24:52;;;;;;;7.95;3.75;;;-1.50;99.90;;;;;;4978755;28;20484;-74
2022/03/05 06:27:18;;;;;;;8.07;4.63;;;-1.50;99.90;;;;;;5008352;28;20064;-74
2022/03/05 06:29:43;;;;;;;13.85;5.55;;;-1.50;99.90;;;;;;4983197;28;20128;-74
2022/03/05 06:32:09;;;;;;;4.45;3.17;;;-1.50;99.90;;;;;;5019888;28;20055;-74
2022/03/05 06:34:35;;;;;;;8.57;5.00;;;-1.50;99.90;;;;;;4990230;28;20037;-74
2022/03/05 06:37:00;;;;;;;6.53;4.22;;;-1.50;99.90;;;;;;4983359;28;20069;-74
2022/03/05 06:39:26;;;;;;;5.53;3.20;;;-1.50;99.90;;;;;;5004648;28;20059;-74
2022/03/05 06:41:52;;;;;;;7.75;4.65;;;-1.50;99.90;;;;;;5006936;28;20034;-74
2022/03/05 06:44:18;;;;;;;7.30;4.30;;;-1.40;99.90;;;;;;5023366;28;20030;-73
2022/03/05 06:46:43;;;;;;;7.75;4.63;;;-1.40;99.90;;;;;;4988945;28;20037;-74
2022/03/05 06:49:09;;;;;;;9.95;4.28;;;-1.40;99.90;;;;;;5010561;28;20037;-74
2022/03/05 06:51:35;;;;;;;7.75;3.47;;;-1.30;99.90;;;;;;4993567;28;20482;-74
2022/03/05 06:54:00;;;;;;;8.77;4.00;;;-1.30;99.90;;;;;;5010995;28;20051;-74
2022/03/05 06:56:26;;;;;;;7.82;4.28;;;-1.30;99.90;;;;;;5041255;28;20045;-74
2022/03/05 06:58:51;;;;;;;6.07;3.58;;;-1.20;99.90;;;;;;5009892;28;20481;-74
2022/03/05 07:01:17;;;;;;;16.63;4.45;;;-1.20;99.90;;;;;;4990698;28;20049;-74
2022/03/05 07:03:43;;;;;;;10.35;3.95;;;-1.10;99.90;;;;;;4990501;28;20529;-75
2022/03/05 07:06:08;;;;;;;11.45;6.53;;;-1.10;99.90;;;;;;4992773;28;20049;-74
2022/03/05 07:08:36;;;;;;;4.35;3.28;;;-1.00;99.90;;;;;;5010935;28;20176;-75
2022/03/05 07:11:02;;;;;;;7.13;3.90;;;-1.00;99.90;;;;;;5009644;28;20113;-75
2022/03/05 07:13:28;;;;;;;6.65;4.50;;;-0.90;99.90;;;;;;5011064;28;20045;-75
2022/03/05 07:15:54;;;;;;;8.10;4.05;;;-0.90;99.90;;;;;;5031550;28;20107;-75
2022/03/05 07:18:19;;;;;;;4.35;3.20;;;-0.70;99.90;;;;;;5010827;28;20140;-75
2022/03/05 07:20:45;;;;;;;4.40;3.50;;;-0.70;99.90;;;;;;4988458;28;20118;-75
2022/03/05 07:23:10;;;;;;;6.57;4.57;;;-0.70;99.90;;;;;;4993189;28;20437;-75
2022/03/05 07:25:39;;;;;;;7.03;3.80;;;-0.60;99.90;;;;;;5010249;28;20140;-75
2022/03/05 07:28:09;;;;;;;6.63;3.42;;;-0.50;99.90;;;;;;5008520;28;20041;-75
2022/03/05 07:30:38;;;;;;;4.28;3.65;;;-0.40;99.90;;;;;;4998554;28;20091;-75
2022/03/05 07:33:05;;;;;;;4.07;3.42;;;-0.30;99.90;;;;;;5005092;28;20042;-75
2022/03/05 07:35:31;;;;;;;4.43;3.47;;;-0.10;99.90;;;;;;5009733;28;20061;-75
2022/03/05 07:37:57;;;;;;;11.20;4.22;;;0.00;99.90;;;;;;5012059;28;20127;-75
2022/03/05 07:40:22;;;;;;;9.80;5.38;;;0.30;99.90;;;;;;5030133;28;20041;-75
2022/03/05 07:42:48;;;;;;;6.57;4.13;;;0.50;99.90;;;;;;5027742;28;20525;-75
2022/03/05 07:45:14;;;;;;;6.50;4.35;;;0.40;99.90;;;;;;5028886;28;20041;-75
2022/03/05 07:47:40;;;;;;;7.82;4.47;;;0.40;99.90;;;;;;5006323;28;20040;-75
2022/03/05 07:50:06;;;;;;;8.35;3.78;;;0.40;99.90;;;;;;5028336;28;20055;-75
2022/03/05 07:52:31;;;;;;;8.82;4.82;;;0.40;99.90;;;;;;5009498;28;20053;-75
2022/03/05 07:54:57;;;;;;;5.18;4.00;;;0.50;99.90;;;;;;5009597;28;20047;-75
2022/03/05 07:57:23;;;;;;;8.07;5.20;;;0.50;99.90;;;;;;5025668;28;20048;-75
2022/03/05 07:59:48;;;;;;;11.45;6.13;;;0.60;99.90;;;;;;5008414;28;20072;-75
2022/03/05 08:02:15;;;;;;;9.15;3.60;;;0.70;99.90;;;;;;5017702;28;20037;-75
2022/03/05 08:04:44;;;;;;;10.73;4.22;;;0.70;99.90;;;;;;5027793;28;20120;-75
2022/03/05 08:07:10;;;;;;;10.90;5.53;;;0.80;99.90;;;;;;5020137;28;20638;-75
2022/03/05 08:09:36;;;;;;;10.85;5.30;;;0.90;99.90;;;;;;5005342;28;20037;-75
2022/03/05 08:12:05;;;;;;;7.93;5.00;;;1.00;99.90;;;;;;5022773;28;20052;-75
2022/03/05 08:14:31;;;;;;;7.78;4.28;;;1.00;99.90;;;;;;5006266;28;20048;-75
2022/03/05 08:16:56;;;;;;;11.55;6.93;;;1.10;99.90;;;;;;5012160;28;20060;-75
2022/03/05 08:19:22;;;;;;;12.75;5.85;;;1.20;99.90;;;;;;5010910;28;20508;-75
2022/03/05 08:21:48;;;;;;;11.57;5.47;;;1.30;99.90;;;;;;5011258;28;20151;-75
2022/03/05 08:24:13;;;;;;;5.18;3.50;;;1.40;99.90;;;;;;5016089;28;20040;-75
2022/03/05 08:26:39;;;;;;;10.48;5.35;;;1.60;99.90;;;;;;5027610;28;20095;-75
2022/03/05 08:29:05;;;;;;;12.20;4.97;;;1.70;99.90;;;;;;5006898;28;20037;-75
2022/03/05 08:31:31;;;;;;;18.10;5.43;;;1.90;99.90;;;;;;4999541;28;20029;-75
2022/03/05 08:34:01;;;;;;;8.45;4.28;;;1.90;99.90;;;;;;5006936;28;20043;-75
2022/03/05 08:36:32;;;;;;;14.40;6.32;;;1.90;99.90;;;;;;5026557;28;20065;-75
2022/03/05 08:38:58;;;;;;;4.13;3.53;;;2.00;99.90;;;;;;5045053;28;20090;-75
2022/03/05 08:41:24;;;;;;;9.10;5.63;;;2.10;99.90;;;;;;5011054;28;20049;-75
2022/03/05 08:43:51;;;;;;;6.13;3.67;;;2.40;99.90;;;;;;5028627;28;20485;-75
2022/03/05 08:46:17;;;;;;;5.95;3.88;;;2.50;99.90;;;;;;5025343;28;20044;-75
2022/03/05 08:48:43;;;;;;;10.75;5.80;;;2.60;99.90;;;;;;5026811;28;20047;-76
2022/03/05 08:51:09;;;;;;;10.30;6.00;;;3.00;99.90;;;;;;5026655;28;20040;-75
2022/03/05 08:53:34;;;;;;;14.38;6.45;;;3.20;99.90;;;;;;5011925;28;20052;-75
2022/03/05 08:56:00;;;;;;;11.80;5.40;;;3.40;99.90;;;;;;5019569;28;20041;-75
2022/03/05 08:58:26;;;;;;;12.05;6.63;;;3.70;99.90;;;;;;5026904;28;20056;-75
2022/03/05 09:00:52;;;;;;;14.13;6.32;;;4.20;99.90;;;;;;5020650;28;20045;-75
2022/03/05 09:03:18;;;;;;;15.30;6.22;;;4.70;99.90;;;;;;5006235;28;20083;-75
2022/03/05 09:05:45;;;;;;;13.27;7.32;;;5.00;99.90;;;;;;5000627;28;20067;-75
2022/03/05 09:08:12;;;;;;;9.88;5.45;;;5.20;99.90;;;;;;5007761;28;20052;-75
2022/03/05 09:10:37;;;;;;;13.07;6.13;;;5.40;99.90;;;;;;5012062;28;20323;-75
2022/03/05 09:13:03;;;;;;;7.70;4.68;;;5.60;99.90;;;;;;5025797;28;20041;-75
2022/03/05 09:15:29;;;;;;;11.40;5.80;;;5.80;99.90;;;;;;5028106;28;20040;-75
2022/03/05 09:17:54;;;;;;;7.47;4.15;;;6.10;99.90;;;;;;5028150;28;20040;-75
2022/03/05 09:20:20;;;;;;;11.98;5.90;;;6.30;99.90;;;;;;5027701;28;20041;-75
2022/03/05 09:22:46;;;;;;;11.27;5.40;;;6.50;99.90;;;;;;5026414;28;20053;-75
2022/03/05 09:25:11;;;;;;;10.65;5.82;;;6.70;99.90;;;;;;4996515;28;20049;-75
2022/03/05 09:27:37;;;;;;;16.90;7.10;;;6.90;99.90;;;;;;5011758;28;20048;-75
2022/03/05 09:30:05;;;;;;;14.18;5.60;;;6.80;99.90;;;;;;5008651;28;20486;-74
2022/03/05 09:32:31;;;;;;;8.13;5.18;;;6.60;99.90;;;;;;5025004;28;20496;-76
2022/03/05 09:34:59;;;;;;;10.98;5.55;;;6.60;99.90;;;;;;5001053;28;20392;-74
2022/03/05 09:37:26;;;;;;;7.63;4.80;;;6.70;99.90;;;;;;5010194;28;20107;-75
2022/03/05 09:39:52;;;;;;;12.77;7.30;;;6.80;99.90;;;;;;5008334;28;20106;-77
2022/03/05 09:42:18;;;;;;;11.43;5.93;;;6.70;99.70;;;;;;5018932;28;20045;-76
2022/03/05 09:44:43;;;;;;;10.40;4.72;;;6.60;99.90;;;;;;5003626;28;20555;-74
2022/03/05 09:47:09;;;;;;;8.40;5.10;;;6.50;99.90;;;;;;5026465;28;20334;-75
2022/03/05 09:49:40;;;;;;;8.15;4.55;;;6.50;99.90;;;;;;5026379;28;20117;-75
2022/03/05 09:52:07;;;;;;;11.32;5.93;;;6.60;99.90;;;;;;5010865;28;20135;-75
2022/03/05 09:54:33;;;;;;;13.07;5.38;;;6.80;99.90;;;;;;5022520;28;20472;-75
2022/03/05 09:56:59;;;;;;;11.13;4.38;;;7.00;99.90;;;;;;5005697;28;20139;-75
2022/03/05 09:59:25;;;;;;;13.88;6.10;;;7.10;99.90;;;;;;5009200;28;20042;-75
2022/03/05 10:01:52;;;;;;;6.75;4.63;;;7.10;99.70;;;;;;5006443;28;20495;-74
2022/03/05 10:04:23;;;;;;;13.20;6.68;;;7.00;99.70;;;;;;5012378;28;20098;-75
2022/03/05 10:07:14;;;;;;;9.18;5.10;;;6.90;99.90;;;;;;5015716;28;20040;-75
2022/03/05 10:09:41;;;;;;;13.05;6.15;;;6.90;99.90;;;;;;5020111;28;20492;-75
2022/03/05 10:12:27;;;;;;;11.90;6.47;;;6.90;99.90;;;;;;5024135;28;20102;-75
2022/03/05 10:15:14;;;;;;;13.63;5.45;;;6.90;99.90;;;;;;5014081;28;20386;-75
2022/03/05 10:17:55;;;;;;;8.15;5.63;;;6.90;99.90;;;;;;5013825;28;20383;-75
2022/03/05 10:20:24;;;;;;;11.07;6.45;;;6.90;99.90;;;;;;5030434;28;20048;-75
2022/03/05 10:22:55;;;;;;;13.00;6.82;;;6.90;99.80;;;;;;5022697;28;20037;-75
2022/03/05 10:25:36;;;;;;;12.80;4.88;;;6.80;99.90;;;;;;5013037;28;20111;-75
2022/03/05 10:28:03;;;;;;;18.45;9.25;;;6.80;99.90;;;;;;5015023;28;20117;-75
2022/03/05 10:30:34;;;;;;;9.25;4.72;;;6.80;99.60;;;;;;5030839;28;20463;-75
2022/03/05 10:33:00;;;;;;;15.25;7.28;;;6.70;99.90;;;;;;5026750;28;20156;-74
2022/03/05 10:35:26;;;;;;;14.85;6.63;;;6.60;99.90;;;;;;5026439;28;20154;-74
2022/03/05 10:37:52;;;;;;;13.48;7.25;;;6.60;99.60;;;;;;5024606;28;20049;-74
2022/03/05 10:40:51;;;;;;;15.07;8.02;;;6.50;99.80;;;;;;5023182;28;20505;-74
2022/03/05 10:43:18;;;;;;;12.02;6.53;;;6.40;99.00;;;;;;5025764;28;20049;-74
2022/03/05 10:45:50;;;;;;;11.10;5.30;;;6.40;99.40;;;;;;4993653;28;20048;-75
2022/03/05 10:48:21;;;;;;;6.38;4.55;;;6.30;99.50;;;;;;5040065;28;20045;-75
2022/03/05 10:50:47;;;;;;;13.45;5.93;;;6.40;99.90;;;;;;5001148;28;20405;-75
2022/03/05 10:53:13;;;;;;;18.65;6.75;;;6.40;99.90;;;;;;5014228;28;20056;-75
2022/03/05 10:55:38;;;;;;;11.23;5.20;;;6.60;99.90;;;;;;5022704;28;20155;-75
2022/03/05 10:58:17;;;;;;;6.65;3.53;;;6.70;99.90;;;;;;5020944;28;20107;-75
2022/03/05 11:00:49;;;;;;;9.10;5.60;;;6.70;99.90;;;;;;5026593;28;20051;-75
2022/03/05 11:03:16;;;;;;;12.93;7.00;;;6.80;99.90;;;;;;5021579;28;20096;-75
2022/03/05 11:05:42;;;;;;;19.17;8.85;;;6.90;99.90;;;;;;5017040;28;20470;-75
2022/03/05 11:08:08;;;;;;;15.02;6.20;;;7.00;97.50;;;;;;5026095;28;20394;-75
2022/03/05 11:10:34;;;;;;;16.10;5.68;;;7.00;98.50;;;;;;5013505;28;20048;-75
2022/03/05 11:13:03;;;;;;;6.03;2.88;;;6.90;99.90;;;;;;5033236;28;20048;-75
2022/03/05 11:15:30;;;;;;;14.38;7.75;;;7.00;99.90;;;;;;5015020;28;20033;-75
2022/03/05 11:17:58;;;;;;;12.98;5.88;;;7.20;96.60;;;;;;5029011;28;20102;-74
2022/03/05 11:20:24;;;;;;;10.38;4.55;;;7.00;96.40;;;;;;5009685;28;20044;-74
2022/03/05 11:22:50;;;;;;;9.20;5.05;;;6.90;95.70;;;;;;5028838;28;20490;-74
2022/03/05 11:25:19;;;;;;;10.80;5.30;;;6.80;97.90;;;;;;5029909;28;20086;-75
2022/03/05 11:28:05;;;;;;;14.00;7.15;;;6.80;98.50;;;;;;5012830;28;20508;-76
2022/03/05 11:30:43;;;;;;;18.52;7.75;;;6.90;99.00;;;;;;5042371;28;20047;-75
2022/03/05 11:33:19;;;;;;;8.15;5.07;;;7.10;97.20;;;;;;5026567;28;20040;-76
2022/03/05 11:35:45;;;;;;;13.32;7.70;;;7.10;97.00;;;;;;5043192;28;20065;-76
2022/03/05 11:38:46;;;;;;;13.02;6.55;;;7.10;96.70;;;;;;5008038;28;20555;-75
2022/03/05 11:41:20;;;;;;;5.32;4.00;;;7.10;97.60;;;;;;4942270;28;20081;-75
2022/03/05 11:43:47;;;;;;;12.30;7.13;;;7.20;98.20;;;;;;5003626;28;20686;-75
2022/03/05 11:46:27;;;;;;;17.20;9.00;;;7.40;98.90;;;;;;5033983;28;20407;-75
2022/03/05 11:49:04;;;;;;;6.25;2.95;;;7.50;94.90;;;;;;5033970;28;20044;-76
2022/03/05 11:51:31;;;;;;;16.63;8.68;;;7.40;96.00;;;;;;5012764;28;20076;-75
2022/03/05 11:54:13;;;;;;;13.45;6.35;;;7.40;95.00;;;;;;5010876;28;20485;-75
2022/03/05 11:56:38;;;;;;;14.23;6.88;;;7.30;94.80;;;;;;5013191;28;20088;-75
2022/03/05 11:59:33;;;;;;;16.88;8.82;;;7.30;96.40;;;;;;5028289;28;20072;-76
2022/03/05 12:01:59;;;;;;;15.30;7.03;;;7.30;95.60;;;;;;5031020;28;20080;-75
2022/03/05 12:04:29;;;;;;;13.15;6.80;;;7.30;97.10;;;;;;5021270;28;20202;-75
2022/03/05 12:07:03;;;;;;;18.75;7.35;;;7.40;95.40;;;;;;5028495;28;20517;-75
2022/03/05 12:09:44;;;;;;;14.27;7.30;;;7.50;95.40;;;;;;5023921;28;20041;-75
2022/03/05 12:12:15;;;;;;;15.40;6.88;;;7.40;94.80;;;;;;5028348;28;20397;-76
2022/03/05 12:14:59;;;;;;;16.98;8.32;;;7.40;95.30;;;;;;5005347;28;20654;-75
2022/03/05 12:17:33;;;;;;;10.75;3.20;;;7.40;95.30;;;;;;5032163;28;20078;-75
2022/03/05 12:19:59;;;;;;;11.52;4.65;;;7.30;94.90;;;;;;5024920;28;20522;-75
2022/03/05 12:22:25;;;;;;;9.25;5.20;;;7.20;97.30;;;;;;5007138;28;20396;-75
2022/03/05 12:24:50;;;;;;;13.90;6.30;;;7.40;98.00;;;;;;5012381;28;20038;-75
2022/03/05 12:27:18;;;;;;;13.27;6.13;;;7.50;96.20;;;;;;5044092;28;20036;-75
2022/03/05 12:29:47;;;;;;;12.48;6.57;;;7.50;95.00;;;;;;5025303;28;20041;-74
2022/03/05 12:32:14;;;;;;;14.57;7.13;;;7.50;93.70;;;;;;5016773;28;20493;-75
2022/03/05 12:34:40;;;;;;;13.00;4.68;;;7.40;95.10;;;;;;5028480;28;20464;-75
2022/03/05 12:37:06;;;;;;;12.80;5.68;;;7.40;96.80;;;;;;5009896;28;20132;-75
2022/03/05 12:39:31;;;;;;;9.07;5.35;;;7.50;96.80;;;;;;5011774;28;20045;-75
2022/03/05 12:41:57;;;;;;;5.60;4.03;;;7.60;95.10;;;;;;5028170;28;20513;-75
2022/03/05 12:44:22;;;;;;;8.73;4.32;;;7.40;95.40;;;;;;5028879;28;20486;-75
2022/03/05 12:46:48;;;;;;;7.07;3.92;;;7.30;95.90;;;;;;5009353;28;20044;-74
2022/03/05 12:49:15;;;;;;;12.80;5.90;;;7.40;96.50;;;;;;5028541;28;20033;-75
2022/03/05 12:51:42;;;;;;;12.15;5.68;;;7.60;95.90;;;;;;5009710;28;20403;-75